createdAt,value
2022-12-24T00:01:41.630Z,96607.56
2022-12-24T00:04:12.042Z,96611.84
2022-12-24T00:06:42.452Z,96621.69
2022-12-24T00:09:13.555Z,96629.72
2022-12-24T00:11:43.666Z,96637.53
2022-12-24T00:14:14.024Z,96646.59
2022-12-24T00:16:47.068Z,96645.31
2022-12-24T00:19:17.655Z,96642.31
2022-12-24T00:21:48.092Z,96639.53
2022-12-24T00:24:18.390Z,96636.22
2022-12-24T00:26:48.842Z,96645.31
2022-12-24T00:29:19.663Z,96648.81
2022-12-24T00:31:55.146Z,96646.81
2022-12-24T00:34:27.469Z,96648.59
2022-12-24T00:37:09.244Z,96652.09
2022-12-24T00:39:42.085Z,96644.31
2022-12-24T00:42:12.485Z,96650.56
2022-12-24T00:44:42.815Z,96660.41
2022-12-24T00:47:15.907Z,96672.22
2022-12-24T00:49:46.272Z,96666.47
2022-12-24T00:52:16.677Z,96670.97
2022-12-24T00:54:47.077Z,96669.72
2022-12-24T00:57:17.537Z,96668.97
2022-12-24T00:59:47.965Z,96681.56
2022-12-24T01:02:21.231Z,96681.03
2022-12-24T01:05:04.110Z,96685.06
2022-12-24T01:07:34.770Z,96678.78
2022-12-24T01:10:05.540Z,96687.59
2022-12-24T01:12:36.773Z,96681.03
2022-12-24T01:15:08.100Z,96684.31
2022-12-24T01:17:41.497Z,96696.16
2022-12-24T01:20:17.989Z,96699.66
2022-12-24T01:22:49.025Z,96698.16
2022-12-24T01:25:19.136Z,96696.16
2022-12-24T01:27:49.536Z,96695.16
2022-12-24T01:30:19.936Z,96700.19
2022-12-24T01:32:53.013Z,96701.94
2022-12-24T01:35:23.360Z,96708.72
2022-12-24T01:37:53.805Z,96715.03
2022-12-24T01:40:36.662Z,96726.63
2022-12-24T01:43:21.391Z,96721.81
2022-12-24T01:45:54.808Z,96723.56
2022-12-24T01:48:37.934Z,96724.84
2022-12-24T01:51:19.513Z,96734.19
2022-12-24T01:53:55.432Z,96733.19
2022-12-24T01:56:26.920Z,96735.19
2022-12-24T01:59:03.261Z,96744.25
2022-12-24T02:01:33.839Z,96736.97
2022-12-24T02:04:12.820Z,96736.44
2022-12-24T02:06:43.176Z,96742.72
2022-12-24T02:09:13.811Z,96750.56
2022-12-24T02:11:46.752Z,96755.88
2022-12-24T02:14:18.704Z,96751.06
2022-12-24T02:17:02.779Z,96762.13
2022-12-24T02:20:34.376Z,96746.25
2022-12-24T02:23:18.775Z,96752.31
2022-12-24T02:26:09.119Z,96756.09
2022-12-24T02:28:55.556Z,96771.44
2022-12-24T02:31:39.400Z,96771.94
2022-12-24T02:34:17.458Z,96769.94
2022-12-24T02:36:56.432Z,96771.72
2022-12-24T02:39:37.713Z,96774.72
2022-12-24T02:42:11.113Z,96780.50
2022-12-24T02:44:48.233Z,96791.31
2022-12-24T02:47:24.084Z,96789.28
2022-12-24T02:49:54.497Z,96785.25
2022-12-24T02:52:37.002Z,96782.00
2022-12-24T02:55:14.325Z,96797.34
2022-12-24T02:58:03.531Z,96807.63
2022-12-24T03:00:46.746Z,96820.50
2022-12-24T03:03:39.132Z,96824.03
2022-12-24T03:06:19.772Z,96821.00
2022-12-24T03:08:59.449Z,96824.28
2022-12-24T03:11:30.019Z,96823.53
2022-12-24T03:14:02.828Z,96825.78
2022-12-24T03:16:33.454Z,96837.13
2022-12-24T03:19:07.630Z,96841.91
2022-12-24T03:21:42.712Z,96839.63
2022-12-24T03:24:13.818Z,96842.69
2022-12-24T03:26:44.471Z,96853.75
2022-12-24T03:29:14.899Z,96855.00
2022-12-24T03:31:47.964Z,96861.25
2022-12-24T03:34:22.277Z,96859.47
2022-12-24T03:36:54.013Z,96871.09
2022-12-24T03:39:24.868Z,96870.84
2022-12-24T03:41:55.485Z,96871.84
2022-12-24T03:44:25.917Z,96890.22
2022-12-24T03:46:56.229Z,96885.47
2022-12-24T03:49:29.118Z,96884.19
2022-12-24T03:51:59.604Z,96890.50
2022-12-24T03:54:30.047Z,96894.97
2022-12-24T03:57:00.440Z,96902.28
2022-12-24T03:59:30.784Z,96905.28
2022-12-24T04:02:01.302Z,96902.28
2022-12-24T04:04:36.876Z,96901.78
2022-12-24T04:07:08.173Z,96916.13
2022-12-24T04:09:39.267Z,96925.19
2022-12-24T04:12:09.758Z,96929.66
2022-12-24T04:14:40.176Z,96920.81
2022-12-24T04:17:10.536Z,96928.13
2022-12-24T04:19:43.744Z,96931.13
2022-12-24T04:22:14.082Z,96937.91
2022-12-24T04:24:44.470Z,96942.44
2022-12-24T04:27:16.562Z,96941.94
2022-12-24T04:29:47.060Z,96944.28
2022-12-24T04:32:17.467Z,96943.44
2022-12-24T04:34:50.472Z,96945.50
2022-12-24T04:37:20.887Z,96965.91
2022-12-24T04:39:51.302Z,96958.00
2022-12-24T04:42:21.640Z,96977.34
2022-12-24T04:44:51.920Z,96985.84
2022-12-24T04:47:22.219Z,96980.31
2022-12-24T04:49:55.143Z,96980.84
2022-12-24T04:52:25.560Z,96976.78
2022-12-24T04:54:55.947Z,96976.09
2022-12-24T04:57:26.278Z,96976.19
2022-12-24T04:59:56.637Z,96983.69
2022-12-24T05:02:27.212Z,96996.97
2022-12-24T05:05:00.438Z,96987.09
2022-12-24T05:07:30.901Z,96996.13
2022-12-24T05:10:01.263Z,97008.66
2022-12-24T05:12:31.642Z,96996.28
2022-12-24T05:15:01.989Z,97008.31
2022-12-24T05:17:32.405Z,97002.50
2022-12-24T05:20:05.445Z,97009.28
2022-12-24T05:22:48.165Z,97015.81
2022-12-24T05:25:31.139Z,97019.28
2022-12-24T05:28:01.516Z,97018.91
2022-12-24T05:30:31.960Z,97024.88
2022-12-24T05:33:02.399Z,97035.94
2022-12-24T05:35:35.384Z,97039.72
2022-12-24T05:38:05.727Z,97039.31
2022-12-24T05:40:36.042Z,97045.25
2022-12-24T05:43:06.315Z,97050.78
2022-12-24T05:45:36.524Z,97048.59
2022-12-24T05:48:08.234Z,97055.59
2022-12-24T05:50:43.263Z,97068.69
2022-12-24T05:53:13.636Z,97075.72
2022-12-24T05:55:44.123Z,97081.63
2022-12-24T05:58:14.953Z,97102.50
2022-12-24T06:00:45.873Z,97102.91
2022-12-24T06:03:16.229Z,97107.84
2022-12-24T06:05:49.211Z,97100.97
2022-12-24T06:08:19.549Z,97102.78
2022-12-24T06:10:49.934Z,97119.66
2022-12-24T06:13:20.287Z,97137.69
2022-12-24T06:15:51.354Z,97132.31
2022-12-24T06:18:21.507Z,97144.31
2022-12-24T06:20:57.444Z,97139.28
2022-12-24T06:23:29.000Z,97148.53
2022-12-24T06:26:01.407Z,97150.28
2022-12-24T06:28:32.663Z,97149.91
2022-12-24T06:31:04.000Z,97144.66
2022-12-24T06:33:35.751Z,97147.97
2022-12-24T06:36:16.734Z,97150.59
2022-12-24T06:38:47.736Z,97155.63
2022-12-24T06:41:18.563Z,97162.88
2022-12-24T06:43:49.750Z,97165.28
2022-12-24T06:46:21.690Z,97168.16
2022-12-24T06:48:52.390Z,97173.47
2022-12-24T06:51:25.913Z,97172.09
2022-12-24T06:53:56.870Z,97188.38
2022-12-24T06:56:27.284Z,97188.59
2022-12-24T06:59:03.193Z,97215.91
2022-12-24T07:01:35.588Z,97206.69
2022-12-24T07:04:06.137Z,97214.31
2022-12-24T07:06:39.098Z,97209.38
2022-12-24T07:09:09.529Z,97211.88
2022-12-24T07:11:39.888Z,97218.03
2022-12-24T07:14:10.349Z,97217.41
2022-12-24T07:16:41.005Z,97223.28
2022-12-24T07:19:11.451Z,97225.38
2022-12-24T07:21:44.382Z,97217.59
2022-12-24T07:24:14.665Z,97229.59
2022-12-24T07:26:45.094Z,97229.50
2022-12-24T07:29:15.607Z,97238.94
2022-12-24T07:31:46.117Z,97251.69
2022-12-24T07:34:16.762Z,97246.56
2022-12-24T07:36:50.110Z,97250.06
2022-12-24T07:39:20.457Z,97258.34
2022-12-24T07:41:50.894Z,97251.78
2022-12-24T07:44:23.025Z,97263.13
2022-12-24T07:46:53.368Z,97261.41
2022-12-24T07:49:23.747Z,97263.97
2022-12-24T07:51:56.836Z,97264.06
2022-12-24T07:54:27.404Z,97266.47
2022-12-24T07:56:57.839Z,97264.47
2022-12-24T07:59:28.463Z,97270.44
2022-12-24T08:01:59.000Z,97269.31
2022-12-24T08:04:29.547Z,97276.38
2022-12-24T08:07:02.553Z,97277.78
2022-12-24T08:09:34.999Z,97288.84
2022-12-24T08:12:06.079Z,97291.44
2022-12-24T08:14:36.165Z,97291.78
2022-12-24T08:17:06.567Z,97296.25
2022-12-24T08:19:36.956Z,97299.03
2022-12-24T08:22:10.362Z,97297.00
2022-12-24T08:24:40.862Z,97301.00
2022-12-24T08:27:11.289Z,97285.63
2022-12-24T08:29:42.011Z,97292.69
2022-12-24T08:32:12.364Z,97301.13
2022-12-24T08:34:42.788Z,97298.91
2022-12-24T08:37:15.747Z,97303.47
2022-12-24T08:39:46.079Z,97304.47
2022-12-24T08:42:16.500Z,97314.31
2022-12-24T08:44:47.011Z,97312.28
2022-12-24T08:47:17.471Z,97318.56
2022-12-24T08:49:47.888Z,97331.38
2022-12-24T08:52:20.888Z,97326.63
2022-12-24T08:54:51.224Z,97329.03
2022-12-24T08:57:21.700Z,97324.66
2022-12-24T08:59:52.613Z,97328.19
2022-12-24T09:02:23.578Z,97335.34
2022-12-24T09:04:53.807Z,97337.66
2022-12-24T09:07:26.872Z,97340.75
2022-12-24T09:09:57.469Z,97349.97
2022-12-24T09:12:28.317Z,97347.09
2022-12-24T09:15:03.934Z,97348.09
2022-12-24T09:17:35.376Z,97338.25
2022-12-24T09:20:07.100Z,97359.19
2022-12-24T09:22:42.509Z,97349.88
2022-12-24T09:25:13.424Z,97352.84
2022-12-24T09:27:43.905Z,97348.69
2022-12-24T09:30:16.407Z,97362.16
2022-12-24T09:32:46.848Z,97360.19
2022-12-24T09:35:17.354Z,97360.44
2022-12-24T09:38:02.913Z,97373.00
2022-12-24T09:40:40.649Z,97378.81
2022-12-24T09:43:20.234Z,97372.34
2022-12-24T09:46:02.235Z,97369.00
2022-12-24T09:48:35.997Z,97373.66
2022-12-24T09:51:11.337Z,97394.22
2022-12-24T09:53:51.365Z,97386.59
2022-12-24T09:56:27.111Z,97402.44
2022-12-24T09:59:02.588Z,97397.41
2022-12-24T10:01:35.823Z,97397.16
2022-12-24T10:04:10.461Z,97406.81
2022-12-24T10:06:49.627Z,97410.06
2022-12-24T10:09:33.918Z,97415.16
2022-12-24T10:12:14.037Z,97413.78
2022-12-24T10:15:01.326Z,97402.16
2022-12-24T10:17:49.710Z,97411.22
2022-12-24T10:20:44.923Z,97414.13
2022-12-24T10:23:24.454Z,97406.22
2022-12-24T10:26:13.276Z,97420.38
2022-12-24T10:28:52.336Z,97422.06
2022-12-24T10:31:29.817Z,97426.72
2022-12-24T10:34:04.946Z,97422.81
2022-12-24T10:36:35.655Z,97427.75
2022-12-24T10:39:06.236Z,97431.47
2022-12-24T10:41:40.139Z,97428.16
2022-12-24T10:44:21.323Z,97432.75
2022-12-24T10:46:51.616Z,97431.28
2022-12-24T10:49:33.447Z,97440.38
2022-12-24T10:52:08.638Z,97430.34
2022-12-24T10:54:41.785Z,97427.22
2022-12-24T10:57:28.771Z,97440.97
2022-12-24T11:00:00.024Z,97439.25
2022-12-24T11:02:33.255Z,97454.72
2022-12-24T11:05:06.768Z,97444.22
2022-12-24T11:07:37.953Z,97445.22
2022-12-24T11:10:10.957Z,97448.38
2022-12-24T11:13:12.574Z,97452.88
2022-12-24T11:15:42.375Z,97474.19
2022-12-24T11:18:18.425Z,97472.75
2022-12-24T11:20:54.528Z,97477.34
2022-12-24T11:23:25.668Z,97463.25
2022-12-24T11:25:57.237Z,97460.97
2022-12-24T11:28:33.603Z,97471.09
2022-12-24T11:31:10.039Z,97497.91
2022-12-24T11:33:51.270Z,97478.78
2022-12-24T11:36:24.515Z,97493.75
2022-12-24T11:38:57.202Z,97489.41
2022-12-24T11:41:28.367Z,97485.31
2022-12-24T11:44:07.939Z,97485.09
2022-12-24T11:46:46.433Z,97495.63
2022-12-24T11:49:24.657Z,97492.38
2022-12-24T11:52:16.765Z,97487.59
2022-12-24T11:54:59.203Z,97497.66
2022-12-24T11:57:37.795Z,97499.63
2022-12-24T12:00:15.350Z,97500.56
2022-12-24T12:02:49.543Z,97500.28
2022-12-24T12:05:24.307Z,97507.06
2022-12-24T12:07:59.962Z,97504.28
2022-12-24T12:10:35.477Z,97500.00
2022-12-24T12:13:15.036Z,97508.81
2022-12-24T12:15:54.695Z,97499.91
2022-12-24T12:18:29.495Z,97497.69
2022-12-24T12:21:06.614Z,97509.34
2022-12-24T12:23:40.206Z,97512.41
2022-12-24T12:26:16.217Z,97506.81
2022-12-24T12:28:52.800Z,97508.13
2022-12-24T12:31:34.260Z,97502.97
2022-12-24T12:34:10.668Z,97504.28
2022-12-24T12:36:46.924Z,97503.53
2022-12-24T12:39:17.947Z,97500.19
2022-12-24T12:41:55.722Z,97504.47
2022-12-24T12:44:52.810Z,97505.06
2022-12-24T12:47:59.331Z,97506.84
2022-12-24T12:50:36.713Z,97512.47
2022-12-24T12:53:39.533Z,97520.59
2022-12-24T12:56:25.873Z,97519.28
2022-12-24T12:59:02.874Z,97517.94
2022-12-24T13:01:46.164Z,97505.78
2022-12-24T13:05:15.745Z,97505.41
2022-12-24T13:08:12.716Z,97500.84
2022-12-24T13:11:09.528Z,97509.13
2022-12-24T13:14:26.793Z,97505.00
2022-12-24T13:17:41.424Z,97511.09
2022-12-24T13:20:25.447Z,97527.91
2022-12-24T13:23:01.541Z,97506.34
2022-12-24T13:25:39.518Z,97504.72
2022-12-24T13:28:36.047Z,97507.59
2022-12-24T13:31:30.953Z,97515.22
2022-12-24T13:34:06.154Z,97519.47
2022-12-24T13:37:07.645Z,97522.66
2022-12-24T13:40:17.391Z,97540.63
2022-12-24T13:43:12.376Z,97534.81
2022-12-24T13:45:52.373Z,97530.44
2022-12-24T13:48:34.992Z,97542.41
2022-12-24T13:51:26.259Z,97538.19
2022-12-24T13:54:01.132Z,97550.50
2022-12-24T13:56:34.305Z,97549.00
2022-12-24T13:59:25.399Z,97548.09
2022-12-24T14:01:56.371Z,97545.72
2022-12-24T14:04:30.886Z,97543.84
2022-12-24T14:07:04.656Z,97549.97
2022-12-24T14:09:38.825Z,97555.31
2022-12-24T14:12:37.448Z,97563.28
2022-12-24T14:15:55.005Z,97571.53
2022-12-24T14:18:28.211Z,97574.97
2022-12-24T14:21:02.528Z,97579.75
2022-12-24T14:23:56.906Z,97579.16
2022-12-24T14:26:34.366Z,97573.78
2022-12-24T14:29:10.385Z,97584.78
2022-12-24T14:31:40.815Z,97574.28
2022-12-24T14:34:16.174Z,97576.56
2022-12-24T14:36:48.367Z,97585.56
2022-12-24T14:39:28.115Z,97596.03
2022-12-24T14:42:13.815Z,97592.63
2022-12-24T14:44:53.046Z,97595.88
2022-12-24T14:47:33.691Z,97592.31
2022-12-24T14:50:31.552Z,97598.28
2022-12-24T14:53:19.235Z,97599.78
2022-12-24T14:55:52.124Z,97606.84
2022-12-24T14:58:31.770Z,97615.00
2022-12-24T15:01:04.611Z,97605.31
2022-12-24T15:03:36.301Z,97617.47
2022-12-24T15:06:13.001Z,97607.53
2022-12-24T15:08:48.588Z,97607.44
2022-12-24T15:11:23.527Z,97612.13
2022-12-24T15:13:59.568Z,97620.44
2022-12-24T15:16:34.920Z,97635.31
2022-12-24T15:19:08.629Z,97640.28
2022-12-24T15:21:44.349Z,97638.88
2022-12-24T15:24:29.505Z,97641.72
2022-12-24T15:26:59.940Z,97630.06
2022-12-24T15:29:36.315Z,97642.03
2022-12-24T15:32:07.422Z,97655.19
2022-12-24T15:34:40.122Z,97664.47
2022-12-24T15:37:17.075Z,97664.06
2022-12-24T15:39:49.233Z,97663.03
2022-12-24T15:42:22.921Z,97668.81
2022-12-24T15:45:02.909Z,97667.50
2022-12-24T15:47:38.435Z,97666.88
2022-12-24T15:50:19.773Z,97666.88
2022-12-24T15:53:18.615Z,97675.59
2022-12-24T15:55:45.636Z,97677.78
2022-12-24T15:58:25.567Z,97680.41
2022-12-24T16:01:12.813Z,97677.88
2022-12-24T16:03:45.271Z,97684.53
2022-12-24T16:06:15.852Z,97697.56
2022-12-24T16:08:48.372Z,97697.84
2022-12-24T16:11:21.705Z,97704.16
2022-12-24T16:14:08.345Z,97710.50
2022-12-24T16:16:45.138Z,97702.28
2022-12-24T16:19:24.355Z,97701.66
2022-12-24T16:21:57.660Z,97703.66
2022-12-24T16:24:30.973Z,97710.03
2022-12-24T16:27:01.680Z,97715.59
2022-12-24T16:29:32.169Z,97711.94
2022-12-24T16:32:05.334Z,97710.56
2022-12-24T16:34:36.301Z,97705.50
2022-12-24T16:37:06.499Z,97719.50
2022-12-24T16:39:38.605Z,97718.28
2022-12-24T16:42:21.451Z,97717.94
2022-12-24T16:44:52.227Z,97724.84
2022-12-24T16:47:33.667Z,97723.31
2022-12-24T16:50:10.637Z,97717.19
2022-12-24T16:52:41.475Z,97726.72
2022-12-24T16:55:16.204Z,97722.38
2022-12-24T16:57:47.549Z,97724.50
2022-12-24T17:00:21.760Z,97721.97
2022-12-24T17:02:55.395Z,97718.56
2022-12-24T17:05:26.174Z,97717.78
2022-12-24T17:07:56.584Z,97717.69
2022-12-24T17:10:26.927Z,97723.13
2022-12-24T17:12:57.927Z,97720.53
2022-12-24T17:15:28.861Z,97719.31
2022-12-24T17:18:01.955Z,97727.94
2022-12-24T17:20:32.553Z,97729.16
2022-12-24T17:23:03.956Z,97749.16
2022-12-24T17:25:34.461Z,97750.22
2022-12-24T17:28:04.845Z,97753.44
2022-12-24T17:30:35.290Z,97754.44
2022-12-24T17:33:14.394Z,97759.03
2022-12-24T17:35:48.547Z,97772.06
2022-12-24T17:38:18.945Z,97767.19
2022-12-24T17:40:49.385Z,97771.34
2022-12-24T17:43:19.795Z,97781.31
2022-12-24T17:45:50.248Z,97778.72
2022-12-24T17:48:23.294Z,97779.34
2022-12-24T17:50:53.774Z,97778.59
2022-12-24T17:53:24.145Z,97782.41
2022-12-24T17:55:54.597Z,97781.50
2022-12-24T17:58:26.827Z,97779.09
2022-12-24T18:00:58.059Z,97780.16
2022-12-24T18:03:31.815Z,97786.44
2022-12-24T18:06:08.162Z,97779.38
2022-12-24T18:08:40.140Z,97770.47
2022-12-24T18:11:21.799Z,97787.38
2022-12-24T18:13:53.434Z,97799.94
2022-12-24T18:16:26.244Z,97799.63
2022-12-24T18:19:04.256Z,97801.16
2022-12-24T18:21:36.217Z,97802.09
2022-12-24T18:24:08.088Z,97808.22
2022-12-24T18:26:38.638Z,97808.38
2022-12-24T18:29:09.116Z,97805.63
2022-12-24T18:31:39.974Z,97819.88
2022-12-24T18:34:17.192Z,97817.44
2022-12-24T18:36:53.029Z,97825.06
2022-12-24T18:39:25.527Z,97815.88
2022-12-24T18:41:55.904Z,97817.88
2022-12-24T18:44:26.196Z,97823.69
2022-12-24T18:46:56.578Z,97824.63
2022-12-24T18:49:29.713Z,97827.53
2022-12-24T18:52:00.029Z,97832.91
2022-12-24T18:54:30.290Z,97838.91
2022-12-24T18:57:00.651Z,97840.44
2022-12-24T18:59:30.970Z,97848.88
2022-12-24T19:02:01.702Z,97841.06
2022-12-24T19:04:34.908Z,97846.56
2022-12-24T19:07:05.251Z,97845.66
2022-12-24T19:09:35.629Z,97846.56
2022-12-24T19:12:06.397Z,97856.56
2022-12-24T19:14:37.521Z,97854.09
2022-12-24T19:17:07.586Z,97848.28
2022-12-24T19:19:40.528Z,97851.66
2022-12-24T19:22:10.874Z,97858.50
2022-12-24T19:24:41.307Z,97863.31
2022-12-24T19:27:11.918Z,97868.97
2022-12-24T19:29:42.387Z,97866.81
2022-12-24T19:32:12.796Z,97870.66
2022-12-24T19:34:45.869Z,97876.00
2022-12-24T19:37:17.003Z,97867.72
2022-12-24T19:39:47.164Z,97864.66
2022-12-24T19:42:17.511Z,97863.25
2022-12-24T19:44:47.846Z,97869.25
2022-12-24T19:47:18.145Z,97858.47
2022-12-24T19:49:51.340Z,97867.41
2022-12-24T19:52:21.958Z,97864.78
2022-12-24T19:54:52.290Z,97870.28
2022-12-24T19:57:22.878Z,97876.84
2022-12-24T19:59:53.421Z,97865.97
2022-12-24T20:02:24.141Z,97871.31
2022-12-24T20:04:57.325Z,97865.47
2022-12-24T20:07:27.671Z,97873.59
2022-12-24T20:09:57.922Z,97879.44
2022-12-24T20:12:28.349Z,97881.41
2022-12-24T20:15:00.102Z,97886.34
2022-12-24T20:17:30.416Z,97886.63
2022-12-24T20:20:03.410Z,97884.19
2022-12-24T20:22:33.766Z,97886.22
2022-12-24T20:25:04.080Z,97891.31
2022-12-24T20:27:34.430Z,97897.44
2022-12-24T20:30:04.748Z,97904.78
2022-12-24T20:32:35.248Z,97903.34
2022-12-24T20:35:09.378Z,97911.47
2022-12-24T20:37:45.633Z,97903.34
2022-12-24T20:40:17.127Z,97910.06
2022-12-24T20:42:47.567Z,97910.72
2022-12-24T20:45:26.884Z,97915.13
2022-12-24T20:47:57.285Z,97917.72
2022-12-24T20:50:30.280Z,97924.47
2022-12-24T20:53:01.250Z,97917.84
2022-12-24T20:55:31.673Z,97918.91
2022-12-24T20:58:02.183Z,97926.22
2022-12-24T21:00:32.882Z,97942.72
2022-12-24T21:03:03.932Z,97932.88
2022-12-24T21:05:36.709Z,97931.31
2022-12-24T21:08:07.191Z,97927.00
2022-12-24T21:10:38.060Z,97933.03
2022-12-24T21:13:07.331Z,97939.19
2022-12-24T21:15:40.771Z,97926.78
2022-12-24T21:18:12.917Z,97925.00
2022-12-24T21:20:47.098Z,97928.41
2022-12-24T21:23:17.392Z,97920.75
2022-12-24T21:25:49.006Z,97920.31
2022-12-24T21:28:19.465Z,97923.34
2022-12-24T21:30:49.934Z,97925.41
2022-12-24T21:33:20.408Z,97920.97
2022-12-24T21:35:53.532Z,97923.41
2022-12-24T21:38:23.943Z,97926.03
2022-12-24T21:41:02.035Z,97927.72
2022-12-24T21:43:33.218Z,97929.88
2022-12-24T21:46:04.459Z,97926.31
2022-12-24T21:48:47.248Z,97938.84
2022-12-24T21:51:20.308Z,97948.00
2022-12-24T21:54:03.130Z,97947.81
2022-12-24T21:56:53.608Z,97949.34
2022-12-24T21:59:26.813Z,97947.94
2022-12-24T22:01:58.118Z,97942.53
2022-12-24T22:04:29.159Z,97938.88
2022-12-24T22:07:14.627Z,97932.91
2022-12-24T22:09:57.474Z,97934.97
2022-12-24T22:12:29.159Z,97939.00
2022-12-24T22:14:59.514Z,97950.03
2022-12-24T22:17:31.035Z,97950.38
2022-12-24T22:20:01.666Z,97949.56
2022-12-24T22:22:34.769Z,97948.41
2022-12-24T22:25:05.273Z,97945.88
2022-12-24T22:27:35.639Z,97944.88
2022-12-24T22:30:06.196Z,97948.72
2022-12-24T22:32:36.622Z,97954.19
2022-12-24T22:35:08.123Z,97959.13
2022-12-24T22:37:41.188Z,97971.34
2022-12-24T22:40:13.638Z,97966.75
2022-12-24T22:42:43.908Z,97966.47
2022-12-24T22:45:21.873Z,97963.03
2022-12-24T22:47:52.787Z,97974.97
2022-12-24T22:50:23.499Z,97975.59
2022-12-24T22:52:56.587Z,97975.56
2022-12-24T22:55:27.179Z,97977.78
2022-12-24T22:57:57.613Z,97982.03
2022-12-24T23:00:44.341Z,97973.13
2022-12-24T23:03:15.607Z,97986.16
2022-12-24T23:05:46.582Z,97981.50
2022-12-24T23:08:19.609Z,97983.81
2022-12-24T23:10:49.937Z,98002.22
2022-12-24T23:13:32.786Z,98005.44
2022-12-24T23:16:06.256Z,98018.59
2022-12-24T23:18:37.149Z,98025.16
2022-12-24T23:21:09.295Z,98032.47
2022-12-24T23:23:42.251Z,98029.22
2022-12-24T23:26:15.973Z,98031.34
2022-12-24T23:28:46.958Z,98024.50
2022-12-24T23:31:18.219Z,98010.41
2022-12-24T23:33:49.287Z,98001.97
2022-12-24T23:36:19.947Z,98004.59
2022-12-24T23:38:52.932Z,98009.09
2022-12-24T23:41:23.542Z,98016.78
2022-12-24T23:43:53.932Z,98014.03
2022-12-24T23:46:25.056Z,98028.00
2022-12-24T23:49:00.335Z,98019.63
2022-12-24T23:51:31.808Z,98011.63
2022-12-24T23:54:04.762Z,98020.25
2022-12-24T23:56:35.194Z,98018.06
2022-12-24T23:59:06.593Z,98017.16
